createdAt,value
2017-10-07T00:00:23.833Z,6.43
2017-10-07T00:02:50.212Z,6.60
2017-10-07T00:05:16.614Z,6.50
2017-10-07T00:07:43.125Z,6.75
2017-10-07T00:10:09.464Z,6.20
2017-10-07T00:12:35.837Z,7.85
2017-10-07T00:15:02.222Z,7.68
2017-10-07T00:17:28.568Z,8.57
2017-10-07T00:19:55.331Z,9.30
2017-10-07T00:22:21.658Z,10.15
2017-10-07T00:24:47.989Z,10.20
2017-10-07T00:27:20.945Z,10.60
2017-10-07T00:29:47.113Z,11.50
2017-10-07T00:32:13.249Z,11.75
2017-10-07T00:34:39.749Z,11.32
2017-10-07T00:37:06.091Z,12.13
2017-10-07T00:39:32.477Z,11.85
2017-10-07T00:41:58.954Z,13.73
2017-10-07T00:44:39.696Z,12.77
2017-10-07T00:47:06.643Z,12.55
2017-10-07T00:49:32.816Z,12.80
2017-10-07T00:51:59.888Z,13.48
2017-10-07T00:54:26.065Z,12.37
2017-10-07T00:56:52.228Z,12.37
2017-10-07T00:59:27.204Z,10.80
2017-10-07T01:01:53.685Z,10.38
2017-10-07T01:04:19.855Z,9.63
2017-10-07T01:06:46.105Z,9.15
2017-10-07T01:09:12.273Z,9.30
2017-10-07T01:11:38.670Z,7.65
2017-10-07T01:14:04.957Z,7.75
2017-10-07T01:16:31.917Z,7.30
2017-10-07T01:18:58.837Z,6.82
2017-10-07T01:21:25.043Z,7.22
2017-10-07T01:23:51.210Z,7.40
2017-10-07T01:26:17.701Z,6.00
2017-10-07T01:28:43.927Z,5.47
2017-10-07T01:31:10.129Z,5.25
2017-10-07T01:33:37.095Z,5.30
2017-10-07T01:36:03.263Z,5.50
2017-10-07T01:38:29.426Z,5.18
2017-10-07T01:40:56.339Z,6.35
2017-10-07T01:43:22.587Z,6.05
2017-10-07T01:45:48.805Z,5.78
2017-10-07T01:48:15.421Z,5.35
2017-10-07T01:50:41.570Z,5.90
2017-10-07T01:53:08.506Z,5.85
2017-10-07T01:55:34.677Z,5.43
2017-10-07T01:58:00.848Z,6.20
2017-10-07T02:00:27.033Z,6.57
2017-10-07T02:02:54.274Z,6.80
2017-10-07T02:05:20.537Z,6.80
2017-10-07T02:07:46.745Z,6.37
2017-10-07T02:10:13.014Z,6.10
2017-10-07T02:12:39.320Z,5.53
2017-10-07T02:15:06.329Z,5.50
2017-10-07T02:17:32.494Z,4.87
2017-10-07T02:19:59.399Z,5.60
2017-10-07T02:22:25.556Z,4.75
2017-10-07T02:24:51.725Z,4.40
2017-10-07T02:27:18.628Z,4.40
2017-10-07T02:29:45.086Z,4.25
2017-10-07T02:32:11.275Z,4.35
2017-10-07T02:34:38.167Z,4.60
2017-10-07T02:37:04.356Z,3.85
2017-10-07T02:39:31.257Z,3.97
2017-10-07T02:41:57.511Z,3.75
2017-10-07T02:44:24.257Z,3.87
2017-10-07T02:46:50.458Z,2.85
2017-10-07T02:49:16.738Z,2.70
2017-10-07T02:51:43.119Z,2.80
2017-10-07T02:54:09.314Z,4.15
2017-10-07T02:56:35.524Z,2.92
2017-10-07T02:59:01.802Z,4.28
2017-10-07T03:01:27.961Z,4.30
2017-10-07T03:03:54.277Z,4.40
2017-10-07T03:06:20.441Z,4.03
2017-10-07T03:08:46.628Z,4.25
2017-10-07T03:11:13.525Z,5.30
2017-10-07T03:13:39.852Z,4.62
2017-10-07T03:16:06.070Z,5.00
2017-10-07T03:18:33.341Z,5.18
2017-10-07T03:21:00.248Z,4.75
2017-10-07T03:23:27.521Z,5.10
2017-10-07T03:25:53.721Z,6.55
2017-10-07T03:28:19.882Z,5.47
2017-10-07T03:30:46.154Z,4.72
2017-10-07T03:33:12.412Z,4.75
2017-10-07T03:35:39.432Z,5.32
2017-10-07T03:38:06.429Z,4.45
2017-10-07T03:40:32.621Z,4.45
2017-10-07T03:42:58.935Z,4.37
2017-10-07T03:45:25.845Z,4.78
2017-10-07T03:47:52.018Z,4.45
2017-10-07T03:50:18.926Z,4.50
2017-10-07T03:52:45.970Z,4.40
2017-10-07T03:55:12.871Z,4.15
2017-10-07T03:57:39.034Z,4.70
2017-10-07T04:00:05.210Z,3.80
2017-10-07T04:02:31.686Z,3.65
2017-10-07T04:04:57.825Z,3.97
2017-10-07T04:07:24.130Z,3.53
2017-10-07T04:09:50.324Z,3.40
2017-10-07T04:12:16.571Z,3.58
2017-10-07T04:14:42.782Z,3.58
2017-10-07T04:17:08.935Z,3.50
2017-10-07T04:19:35.205Z,3.42
2017-10-07T04:22:01.455Z,3.70
2017-10-07T04:24:27.612Z,3.50
2017-10-07T04:26:53.772Z,4.00
2017-10-07T04:29:19.929Z,3.78
2017-10-07T04:31:46.074Z,3.70
2017-10-07T04:34:12.968Z,3.65
2017-10-07T04:36:39.906Z,3.30
2017-10-07T04:39:06.083Z,4.85
2017-10-07T04:41:33.117Z,3.47
2017-10-07T04:43:59.311Z,2.75
2017-10-07T04:46:25.491Z,3.33
2017-10-07T04:48:51.669Z,3.00
2017-10-07T04:51:18.215Z,3.28
2017-10-07T04:53:44.409Z,2.75
2017-10-07T04:56:10.612Z,3.67
2017-10-07T04:58:36.777Z,3.55
2017-10-07T05:01:02.933Z,2.85
2017-10-07T05:03:29.117Z,3.35
2017-10-07T05:05:56.032Z,3.83
2017-10-07T05:08:22.185Z,3.17
2017-10-07T05:10:48.361Z,3.00
2017-10-07T05:13:14.664Z,3.97
2017-10-07T05:15:40.941Z,3.42
2017-10-07T05:18:07.845Z,2.87
2017-10-07T05:20:34.040Z,2.80
2017-10-07T05:23:00.252Z,3.47
2017-10-07T05:25:27.196Z,3.20
2017-10-07T05:27:54.447Z,3.00
2017-10-07T05:30:20.636Z,3.90
2017-10-07T05:32:47.525Z,3.05
2017-10-07T05:35:13.878Z,3.05
2017-10-07T05:37:40.486Z,3.45
2017-10-07T05:40:06.867Z,3.05
2017-10-07T05:42:33.069Z,2.70
2017-10-07T05:44:59.221Z,2.80
2017-10-07T05:47:25.570Z,3.30
2017-10-07T05:49:51.975Z,3.50
2017-10-07T05:52:21.079Z,3.25
2017-10-07T05:54:47.246Z,3.58
2017-10-07T05:57:13.498Z,2.70
2017-10-07T05:59:40.080Z,3.28
2017-10-07T06:02:06.246Z,2.72
2017-10-07T06:04:32.734Z,2.85
2017-10-07T06:06:58.982Z,2.92
2017-10-07T06:09:25.192Z,3.37
2017-10-07T06:11:51.653Z,2.17
2017-10-07T06:14:18.045Z,2.75
2017-10-07T06:16:44.289Z,2.85
2017-10-07T06:19:10.461Z,2.75
2017-10-07T06:21:36.629Z,3.03
2017-10-07T06:24:03.679Z,2.97
2017-10-07T06:26:29.872Z,3.05
2017-10-07T06:28:56.039Z,2.72
2017-10-07T06:31:22.259Z,2.80
2017-10-07T06:33:48.452Z,2.60
2017-10-07T06:36:15.570Z,2.60
2017-10-07T06:38:41.924Z,3.15
2017-10-07T06:41:08.849Z,3.10
2017-10-07T06:43:35.021Z,2.42
2017-10-07T06:46:01.249Z,2.37
2017-10-07T06:48:27.432Z,2.90
2017-10-07T06:50:53.613Z,3.30
2017-10-07T06:53:19.780Z,2.37
2017-10-07T06:55:47.030Z,2.90
2017-10-07T06:58:13.253Z,2.70
2017-10-07T07:00:39.413Z,1.87
2017-10-07T07:03:05.694Z,2.70
2017-10-07T07:05:31.925Z,2.47
2017-10-07T07:07:58.114Z,2.70
2017-10-07T07:10:24.261Z,2.25
2017-10-07T07:12:50.504Z,2.83
2017-10-07T07:15:16.794Z,2.60
2017-10-07T07:17:43.677Z,2.42
2017-10-07T07:20:09.909Z,2.35
2017-10-07T07:22:38.169Z,2.50
2017-10-07T07:25:05.287Z,2.70
2017-10-07T07:27:31.457Z,3.53
2017-10-07T07:29:57.611Z,2.62
2017-10-07T07:32:23.762Z,2.45
2017-10-07T07:34:49.930Z,2.70
2017-10-07T07:37:16.076Z,2.55
2017-10-07T07:39:42.222Z,2.80
2017-10-07T07:42:08.438Z,2.50
2017-10-07T07:44:34.789Z,2.85
2017-10-07T07:47:02.083Z,2.75
2017-10-07T07:49:28.312Z,2.83
2017-10-07T07:51:54.462Z,3.05
2017-10-07T07:54:20.941Z,3.20
2017-10-07T07:56:47.430Z,2.95
2017-10-07T07:59:13.665Z,3.10
2017-10-07T08:01:40.111Z,3.15
2017-10-07T08:04:06.342Z,3.97
2017-10-07T08:06:33.245Z,3.40
2017-10-07T08:09:00.172Z,3.78
2017-10-07T08:11:26.910Z,3.10
2017-10-07T08:13:53.083Z,3.12
2017-10-07T08:16:19.287Z,2.70
2017-10-07T08:18:46.194Z,3.47
2017-10-07T08:21:12.347Z,2.95
2017-10-07T08:23:38.842Z,3.60
2017-10-07T08:26:05.098Z,3.22
2017-10-07T08:28:32.284Z,2.85
2017-10-07T08:30:59.676Z,2.40
2017-10-07T08:33:26.828Z,2.87
2017-10-07T08:36:01.228Z,3.00
2017-10-07T08:38:27.397Z,2.72
2017-10-07T08:40:53.560Z,2.95
2017-10-07T08:43:19.725Z,2.80
2017-10-07T08:45:45.892Z,2.50
2017-10-07T08:48:12.322Z,2.33
2017-10-07T08:50:38.565Z,2.25
2017-10-07T08:53:05.336Z,2.55
2017-10-07T08:55:31.700Z,2.33
2017-10-07T08:57:57.882Z,2.42
2017-10-07T09:00:24.103Z,3.03
2017-10-07T09:02:50.283Z,2.70
2017-10-07T09:05:17.201Z,3.28
2017-10-07T09:07:43.369Z,2.70
2017-10-07T09:10:11.104Z,2.50
2017-10-07T09:12:37.461Z,2.47
2017-10-07T09:15:03.657Z,2.67
2017-10-07T09:20:00.994Z,2.70
2017-10-07T09:22:27.175Z,2.70
2017-10-07T09:24:53.787Z,3.33
2017-10-07T09:27:19.957Z,2.97
2017-10-07T09:29:46.116Z,3.22
2017-10-07T09:32:12.295Z,3.10
2017-10-07T09:34:38.534Z,2.80
2017-10-07T09:37:04.719Z,3.65
2017-10-07T09:39:33.213Z,2.55
2017-10-07T09:41:59.398Z,2.78
2017-10-07T09:44:26.322Z,3.70
2017-10-07T09:46:52.525Z,3.10
2017-10-07T09:49:19.674Z,3.17
2017-10-07T09:51:45.965Z,3.15
2017-10-07T09:54:12.150Z,2.70
2017-10-07T09:56:39.057Z,2.60
2017-10-07T09:59:05.255Z,3.17
2017-10-07T10:01:32.178Z,2.62
2017-10-07T10:03:58.394Z,2.92
2017-10-07T10:06:24.633Z,3.05
2017-10-07T10:08:50.841Z,2.97
2017-10-07T10:11:17.773Z,3.30
2017-10-07T10:13:43.946Z,3.03
2017-10-07T10:16:10.133Z,2.90
2017-10-07T10:18:36.509Z,2.80
2017-10-07T10:21:03.148Z,2.87
2017-10-07T10:23:29.293Z,2.45
2017-10-07T10:25:56.230Z,2.53
2017-10-07T10:28:22.477Z,3.10
2017-10-07T10:30:54.824Z,2.47
2017-10-07T10:33:21.013Z,2.70
2017-10-07T10:35:47.197Z,2.92
2017-10-07T10:38:13.423Z,3.00
2017-10-07T10:40:41.524Z,2.40
2017-10-07T10:43:07.775Z,2.65
2017-10-07T10:45:33.972Z,2.60
2017-10-07T10:48:00.165Z,3.10
2017-10-07T10:50:27.077Z,2.20
2017-10-07T10:52:53.238Z,2.72
2017-10-07T10:55:35.397Z,2.10
2017-10-07T10:58:02.423Z,2.47
2017-10-07T11:00:28.606Z,2.45
2017-10-07T11:02:55.521Z,2.97
2017-10-07T11:05:21.739Z,2.42
2017-10-07T11:07:48.134Z,2.10
2017-10-07T11:10:14.529Z,2.45
2017-10-07T11:12:41.010Z,3.15
2017-10-07T11:15:07.448Z,2.90
2017-10-07T11:17:34.566Z,2.35
2017-10-07T11:20:01.001Z,2.90
2017-10-07T11:22:43.993Z,3.30
2017-10-07T11:25:12.948Z,2.85
2017-10-07T11:27:43.999Z,2.67
2017-10-07T11:30:10.219Z,3.12
2017-10-07T11:32:37.181Z,2.90
2017-10-07T11:35:05.419Z,3.17
2017-10-07T11:37:31.741Z,3.15
2017-10-07T11:39:57.937Z,2.80
2017-10-07T11:42:24.139Z,2.50
2017-10-07T11:44:50.338Z,3.03
2017-10-07T11:47:16.531Z,2.92
2017-10-07T11:49:46.790Z,3.08
2017-10-07T11:52:14.971Z,3.28
2017-10-07T11:54:41.207Z,3.30
2017-10-07T11:57:08.163Z,3.47
2017-10-07T11:59:35.968Z,2.90
2017-10-07T12:02:09.835Z,3.35
2017-10-07T12:04:36.013Z,2.80
2017-10-07T12:07:02.243Z,3.42
2017-10-07T12:09:29.261Z,3.30
2017-10-07T12:11:55.430Z,3.20
2017-10-07T12:14:25.468Z,3.50
2017-10-07T12:16:52.193Z,2.80
2017-10-07T12:19:31.605Z,3.30
2017-10-07T12:21:57.833Z,3.85
2017-10-07T12:24:24.040Z,3.65
2017-10-07T12:27:06.374Z,3.55
2017-10-07T12:29:38.687Z,3.72
2017-10-07T12:32:04.870Z,2.83
2017-10-07T12:34:31.116Z,3.03
2017-10-07T12:36:57.316Z,2.85
2017-10-07T12:39:23.533Z,3.40
2017-10-07T12:41:49.745Z,2.83
2017-10-07T12:44:15.986Z,3.10
2017-10-07T12:46:43.591Z,3.30
2017-10-07T12:49:09.764Z,4.30
2017-10-07T12:51:35.957Z,2.35
2017-10-07T12:54:04.009Z,2.22
2017-10-07T12:56:30.190Z,2.75
2017-10-07T12:58:57.685Z,2.70
2017-10-07T13:01:23.823Z,2.70
2017-10-07T13:03:56.700Z,3.33
2017-10-07T13:06:22.878Z,2.78
2017-10-07T13:08:49.152Z,3.40
2017-10-07T13:11:15.307Z,3.10
2017-10-07T13:13:41.448Z,3.25
2017-10-07T13:16:07.598Z,3.65
2017-10-07T13:21:06.673Z,4.15
2017-10-07T13:23:33.809Z,3.72
2017-10-07T13:26:00.210Z,4.53
2017-10-07T13:28:26.604Z,3.70
2017-10-07T13:30:53.038Z,4.30
2017-10-07T13:33:21.618Z,3.85
2017-10-07T13:35:48.897Z,4.75
2017-10-07T13:38:16.244Z,4.65
2017-10-07T13:40:42.607Z,3.90
2017-10-07T13:43:09.017Z,4.10
2017-10-07T13:45:35.376Z,3.58
2017-10-07T13:48:02.857Z,4.15
2017-10-07T13:50:29.238Z,4.62
2017-10-07T13:52:56.709Z,4.25
2017-10-07T13:55:23.042Z,4.20
2017-10-07T13:58:04.403Z,4.32
2017-10-07T14:00:33.970Z,4.65
2017-10-07T14:03:00.625Z,4.57
2017-10-07T14:05:30.173Z,4.80
2017-10-07T14:07:57.322Z,5.03
2017-10-07T14:10:24.242Z,4.60
2017-10-07T14:12:50.598Z,4.32
2017-10-07T14:15:17.153Z,4.78
2017-10-07T14:17:47.254Z,8.20
2017-10-07T14:20:13.666Z,4.70
2017-10-07T14:22:40.790Z,4.30
2017-10-07T14:25:07.223Z,7.40
2017-10-07T14:27:33.573Z,15.40
2017-10-07T14:30:00.832Z,29.52
2017-10-07T14:32:27.197Z,15.05
2017-10-07T14:34:54.296Z,6.43
2017-10-07T14:37:21.378Z,6.20
2017-10-07T14:39:48.124Z,18.85
2017-10-07T14:42:16.360Z,7.37
2017-10-07T14:44:42.792Z,14.65
2017-10-07T14:47:09.274Z,13.55
2017-10-07T14:49:35.752Z,5.70
2017-10-07T14:52:05.073Z,5.45
2017-10-07T14:54:32.204Z,8.77
2017-10-07T14:56:58.605Z,5.18
2017-10-07T14:59:25.228Z,5.70
2017-10-07T15:01:58.504Z,5.62
2017-10-07T15:04:27.267Z,5.90
2017-10-07T15:06:54.269Z,12.65
2017-10-07T15:09:20.765Z,18.95
2017-10-07T15:11:47.266Z,7.65
2017-10-07T15:14:19.906Z,8.57
2017-10-07T15:16:46.656Z,8.88
2017-10-07T15:19:13.097Z,4.85
2017-10-07T15:21:40.205Z,4.70
2017-10-07T15:24:06.590Z,5.25
2017-10-07T15:26:32.938Z,4.97
2017-10-07T15:28:59.391Z,5.20
2017-10-07T15:31:31.165Z,7.10
2017-10-07T15:33:57.533Z,5.20
2017-10-07T15:36:23.976Z,9.48
2017-10-07T15:38:51.910Z,12.60
2017-10-07T15:41:18.283Z,21.52
2017-10-07T15:43:44.630Z,4.20
2017-10-07T15:46:15.288Z,9.27
2017-10-07T15:48:41.726Z,14.70
2017-10-07T15:51:08.865Z,5.70
2017-10-07T15:53:35.293Z,14.23
2017-10-07T15:56:03.056Z,5.70
2017-10-07T15:58:29.563Z,4.10
2017-10-07T16:00:55.945Z,3.25
2017-10-07T16:03:22.351Z,4.07
2017-10-07T16:05:49.454Z,3.72
2017-10-07T16:08:15.797Z,3.28
2017-10-07T16:10:47.428Z,3.47
2017-10-07T16:13:13.895Z,3.90
2017-10-07T16:15:40.274Z,3.70
2017-10-07T16:18:06.656Z,3.85
2017-10-07T16:20:33.049Z,4.40
2017-10-07T16:22:59.445Z,21.30
2017-10-07T16:25:36.295Z,10.38
2017-10-07T16:28:02.461Z,4.65
2017-10-07T16:30:28.810Z,4.20
2017-10-07T16:32:55.120Z,3.92
2017-10-07T16:35:22.033Z,3.92
2017-10-07T16:37:48.419Z,4.10
2017-10-07T16:40:15.345Z,3.83
2017-10-07T16:42:41.525Z,4.18
2017-10-07T16:45:09.853Z,4.00
2017-10-07T16:47:36.053Z,4.07
2017-10-07T16:50:02.386Z,4.60
2017-10-07T16:52:28.694Z,3.55
2017-10-07T16:54:54.929Z,4.43
2017-10-07T16:57:21.921Z,3.40
2017-10-07T16:59:56.683Z,3.40
2017-10-07T17:02:34.989Z,3.83
2017-10-07T17:05:01.178Z,4.30
2017-10-07T17:07:27.391Z,3.87
2017-10-07T17:09:54.277Z,4.00
2017-10-07T17:12:20.482Z,4.00
2017-10-07T17:14:47.579Z,3.55
2017-10-07T17:17:13.814Z,3.70
2017-10-07T17:19:39.958Z,3.20
2017-10-07T17:22:06.098Z,3.75
2017-10-07T17:24:32.270Z,4.10
2017-10-07T17:26:58.431Z,3.42
2017-10-07T17:29:25.307Z,3.53
2017-10-07T17:31:51.465Z,4.62
2017-10-07T17:34:17.626Z,3.50
2017-10-07T17:36:44.225Z,3.42
2017-10-07T17:39:10.425Z,3.53
2017-10-07T17:41:36.557Z,3.45
2017-10-07T17:44:02.728Z,3.45
2017-10-07T17:46:29.645Z,3.83
2017-10-07T17:48:55.812Z,3.55
2017-10-07T17:51:21.952Z,3.45
2017-10-07T17:53:48.127Z,3.75
2017-10-07T17:56:14.301Z,4.07
2017-10-07T17:58:40.469Z,4.45
2017-10-07T18:01:06.729Z,5.78
2017-10-07T18:03:33.627Z,6.40
2017-10-07T18:05:59.846Z,7.45
2017-10-07T18:08:25.981Z,6.62
2017-10-07T18:10:52.166Z,7.30
2017-10-07T18:13:18.306Z,6.90
2017-10-07T18:15:44.521Z,4.35
2017-10-07T18:18:10.662Z,4.47
2017-10-07T18:20:36.831Z,4.55
2017-10-07T18:23:02.972Z,4.72
2017-10-07T18:25:29.105Z,4.35
2017-10-07T18:27:55.257Z,4.75
2017-10-07T18:30:22.789Z,4.90
2017-10-07T18:32:48.943Z,4.15
2017-10-07T18:35:15.843Z,4.87
2017-10-07T18:37:41.974Z,5.00
2017-10-07T18:40:08.852Z,5.15
2017-10-07T18:42:35.080Z,5.20
2017-10-07T18:45:01.274Z,4.78
2017-10-07T18:47:27.462Z,4.75
2017-10-07T18:49:54.321Z,5.00
2017-10-07T18:52:22.093Z,4.60
2017-10-07T18:57:25.525Z,5.00
2017-10-07T18:59:51.761Z,4.35
2017-10-07T19:02:18.659Z,5.82
2017-10-07T19:04:44.904Z,5.15
2017-10-07T19:07:11.795Z,4.50
2017-10-07T19:09:38.733Z,4.85
2017-10-07T19:12:04.969Z,5.70
2017-10-07T19:14:35.149Z,5.10
2017-10-07T19:17:01.314Z,5.90
2017-10-07T19:19:27.461Z,5.65
2017-10-07T19:21:53.726Z,5.60
2017-10-07T19:24:20.766Z,6.32
2017-10-07T19:26:46.929Z,5.43
2017-10-07T19:29:13.069Z,6.85
2017-10-07T19:31:39.963Z,6.12
2017-10-07T19:34:06.112Z,6.43
2017-10-07T19:36:32.314Z,4.12
2017-10-07T19:38:58.457Z,5.97
2017-10-07T19:41:24.585Z,5.18
2017-10-07T19:43:50.740Z,5.40
2017-10-07T19:46:16.909Z,4.30
2017-10-07T19:48:43.045Z,4.80
2017-10-07T19:51:09.186Z,4.47
2017-10-07T19:53:35.334Z,5.35
2017-10-07T19:56:01.481Z,4.90
2017-10-07T19:58:27.647Z,5.35
2017-10-07T20:00:54.529Z,5.80
2017-10-07T20:03:20.679Z,5.30
2017-10-07T20:05:46.831Z,5.30
2017-10-07T20:08:13.782Z,5.57
2017-10-07T20:10:39.928Z,5.70
2017-10-07T20:13:06.113Z,6.28
2017-10-07T20:15:32.252Z,6.03
2017-10-07T20:17:58.405Z,6.25
2017-10-07T20:20:24.581Z,6.50
2017-10-07T20:23:00.085Z,6.53
2017-10-07T20:25:28.394Z,6.93
2017-10-07T20:27:54.547Z,7.25
2017-10-07T20:30:20.838Z,6.97
2017-10-07T20:32:46.997Z,6.37
2017-10-07T20:35:19.043Z,6.03
2017-10-07T20:37:51.925Z,5.65
2017-10-07T20:40:26.056Z,6.30
2017-10-07T20:43:03.108Z,5.00
2017-10-07T20:45:29.959Z,6.20
2017-10-07T20:47:56.285Z,6.25
2017-10-07T20:50:22.629Z,5.07
2017-10-07T20:52:48.990Z,4.78
2017-10-07T20:55:16.134Z,5.00
2017-10-07T20:57:42.476Z,4.10
2017-10-07T21:00:08.813Z,4.70
2017-10-07T21:02:35.154Z,3.75
2017-10-07T21:05:01.504Z,4.75
2017-10-07T21:07:28.621Z,4.65
2017-10-07T21:10:01.709Z,4.20
2017-10-07T21:12:30.699Z,4.60
2017-10-07T21:14:57.071Z,4.30
2017-10-07T21:17:24.242Z,4.60
2017-10-07T21:19:51.573Z,4.05
2017-10-07T21:22:17.966Z,4.30
2017-10-07T21:24:45.089Z,4.43
2017-10-07T21:27:14.985Z,5.00
2017-10-07T21:29:42.099Z,5.30
2017-10-07T21:32:09.364Z,5.03
2017-10-07T21:34:35.956Z,5.55
2017-10-07T21:37:02.362Z,5.95
2017-10-07T21:39:28.701Z,6.12
2017-10-07T21:41:55.074Z,6.62
2017-10-07T21:44:21.436Z,6.35
2017-10-07T21:46:47.833Z,6.62
2017-10-07T21:49:14.185Z,6.97
2017-10-07T21:51:41.356Z,7.35
2017-10-07T21:54:07.806Z,7.47
2017-10-07T21:56:35.593Z,7.22
2017-10-07T21:59:02.370Z,7.15
2017-10-07T22:01:28.761Z,7.45
2017-10-07T22:03:55.889Z,8.40
2017-10-07T22:06:22.227Z,7.25
2017-10-07T22:08:48.598Z,8.70
2017-10-07T22:11:14.958Z,7.85
2017-10-07T22:13:41.318Z,7.90
2017-10-07T22:16:07.673Z,7.60
2017-10-07T22:18:33.998Z,7.97
2017-10-07T22:21:00.348Z,7.72
2017-10-07T22:23:27.006Z,7.18
2017-10-07T22:25:54.122Z,7.57
2017-10-07T22:28:20.622Z,7.12
2017-10-07T22:30:51.242Z,8.27
2017-10-07T22:33:18.853Z,6.60
2017-10-07T22:35:45.217Z,6.97
2017-10-07T22:38:11.565Z,7.22
2017-10-07T22:40:37.984Z,7.70
2017-10-07T22:43:10.986Z,7.97
2017-10-07T22:45:38.217Z,7.75
2017-10-07T22:48:04.934Z,7.47
2017-10-07T22:50:31.306Z,8.63
2017-10-07T22:52:57.795Z,7.50
2017-10-07T22:55:24.170Z,8.40
2017-10-07T22:57:50.680Z,8.00
2017-10-07T23:00:17.029Z,9.00
2017-10-07T23:02:43.380Z,9.13
2017-10-07T23:05:09.763Z,8.95
2017-10-07T23:07:36.117Z,10.05
2017-10-07T23:10:02.449Z,8.70
2017-10-07T23:12:28.797Z,9.00
2017-10-07T23:14:55.165Z,8.70
2017-10-07T23:17:22.233Z,8.88
2017-10-07T23:19:49.477Z,9.43
2017-10-07T23:22:33.673Z,9.63
2017-10-07T23:25:00.025Z,10.05
2017-10-07T23:27:26.384Z,9.65
2017-10-07T23:29:52.722Z,9.10
2017-10-07T23:32:19.253Z,9.63
2017-10-07T23:34:45.605Z,9.68
2017-10-07T23:37:11.933Z,10.63
2017-10-07T23:39:38.201Z,12.18
2017-10-07T23:42:04.540Z,12.05
2017-10-07T23:44:30.919Z,11.20
2017-10-07T23:46:57.245Z,11.80
2017-10-07T23:49:23.616Z,11.98
2017-10-07T23:51:50.689Z,13.18
2017-10-07T23:54:17.063Z,12.30
2017-10-07T23:56:43.415Z,13.40
2017-10-07T23:59:12.823Z,13.13
